Time;durP1;ratioP1;P1;durP2;ratioP2;P2;SDS_P1;SDS_P2;PMS_P1;PMS_P2;Temp;Humidity;BMP_temperature;BMP_pressure;BME280_temperature;BME280_humidity;BME280_pressure;Samples;Min_cycle;Max_cycle;Signal;HPM_P1;HPM_P2
2021/04/29 00:01:58;;;;;;;12.97;7.20;;;15.10;89.50;;;;;;5025039;28;20482;-72
2021/04/29 00:04:25;;;;;;;11.87;7.13;;;15.30;88.40;;;;;;5025477;28;20508;-72
2021/04/29 00:06:51;;;;;;;12.03;7.57;;;15.40;89.40;;;;;;5039066;28;20430;-72
2021/04/29 00:09:18;;;;;;;11.87;7.97;;;15.50;90.40;;;;;;5034795;28;20918;-71
2021/04/29 00:11:45;;;;;;;10.17;7.60;;;15.60;90.10;;;;;;5034309;28;20459;-71
2021/04/29 00:14:13;;;;;;;8.60;5.90;;;15.60;90.10;;;;;;5040564;28;20456;-70
2021/04/29 00:16:40;;;;;;;13.30;7.63;;;15.70;91.40;;;;;;5030309;28;20434;-71
2021/04/29 00:19:09;;;;;;;10.93;6.97;;;15.70;91.40;;;;;;5033431;28;20827;-71
2021/04/29 00:21:36;;;;;;;9.70;6.00;;;15.70;91.50;;;;;;5028824;28;20808;-71
2021/04/29 00:24:03;;;;;;;9.67;5.60;;;15.60;91.30;;;;;;5030656;28;20439;-70
2021/04/29 00:26:30;;;;;;;10.80;7.10;;;15.50;91.50;;;;;;5029435;28;20435;-71
2021/04/29 00:28:57;;;;;;;10.77;6.80;;;15.50;91.90;;;;;;5030182;28;20995;-72
2021/04/29 00:31:23;;;;;;;10.00;7.17;;;15.60;91.70;;;;;;5011999;28;20811;-71
2021/04/29 00:33:50;;;;;;;15.60;7.37;;;15.40;92.00;;;;;;5031179;28;20430;-71
2021/04/29 00:36:18;;;;;;;10.53;7.30;;;15.30;92.50;;;;;;5028465;28;20463;-73
2021/04/29 00:38:45;;;;;;;10.87;7.70;;;15.20;92.70;;;;;;5031236;28;20567;-71
2021/04/29 00:41:11;;;;;;;13.30;5.90;;;15.20;92.70;;;;;;5026393;28;20455;-71
2021/04/29 00:43:38;;;;;;;11.33;5.30;;;15.20;94.20;;;;;;5031560;28;20876;-72
2021/04/29 00:46:05;;;;;;;10.17;5.00;;;15.00;95.30;;;;;;5048850;28;20463;-72
2021/04/29 00:48:32;;;;;;;4.07;3.67;;;15.00;97.10;;;;;;5047185;28;20517;-72
2021/04/29 00:50:58;;;;;;;3.73;3.20;;;15.10;98.30;;;;;;5029399;28;20900;-71
2021/04/29 00:53:36;;;;;;;4.13;3.63;;;15.00;99.90;;;;;;5032286;28;20464;-71
2021/04/29 00:56:03;;;;;;;17.13;3.90;;;15.20;99.90;;;;;;5033868;28;20455;-71
2021/04/29 00:58:30;;;;;;;5.73;3.60;;;15.30;99.90;;;;;;5026573;28;20503;-71
2021/04/29 01:00:57;;;;;;;6.20;4.67;;;15.10;99.90;;;;;;5032383;28;20560;-69
2021/04/29 01:03:31;;;;;;;8.03;4.87;;;15.00;99.90;;;;;;5026889;28;20498;-71
2021/04/29 01:06:04;;;;;;;4.80;2.90;;;15.00;99.90;;;;;;5033967;28;20723;-71
2021/04/29 01:08:37;;;;;;;5.10;3.90;;;15.10;99.90;;;;;;5028196;28;20504;-72
2021/04/29 01:11:08;;;;;;;6.90;4.17;;;15.10;99.90;;;;;;5035417;28;20558;-70
2021/04/29 01:13:36;;;;;;;9.90;3.57;;;15.10;99.90;;;;;;5033904;28;20939;-71
2021/04/29 01:16:03;;;;;;;3.77;2.90;;;15.10;99.90;;;;;;5031527;28;22315;-70
2021/04/29 01:18:31;;;;;;;9.43;3.23;;;15.10;99.90;;;;;;5029986;28;20506;-70
2021/04/29 01:21:03;;;;;;;5.20;3.50;;;15.20;99.90;;;;;;5026045;28;20483;-71
2021/04/29 01:23:48;;;;;;;3.83;3.53;;;15.20;99.90;;;;;;5036678;28;20490;-71
2021/04/29 01:26:19;;;;;;;5.87;3.03;;;15.10;99.90;;;;;;5031271;28;20453;-71
2021/04/29 01:28:48;;;;;;;2.93;2.60;;;15.00;99.90;;;;;;5033127;28;20493;-71
2021/04/29 01:31:15;;;;;;;3.40;2.77;;;14.90;99.90;;;;;;5031170;28;20572;-71
2021/04/29 01:33:42;;;;;;;5.10;3.30;;;14.90;99.90;;;;;;5035806;28;20519;-71
2021/04/29 01:36:10;;;;;;;4.67;3.87;;;14.80;99.90;;;;;;5032795;28;20459;-72
2021/04/29 01:38:38;;;;;;;4.87;3.60;;;14.80;99.90;;;;;;5030552;28;20510;-71
2021/04/29 01:41:06;;;;;;;3.73;3.30;;;14.80;99.90;;;;;;5030837;28;20461;-71
2021/04/29 01:43:33;;;;;;;4.60;2.63;;;14.80;99.90;;;;;;5030827;28;20456;-71
2021/04/29 01:46:02;;;;;;;3.90;3.10;;;14.80;99.90;;;;;;5036622;28;21005;-71
2021/04/29 01:48:30;;;;;;;4.10;2.60;;;14.90;99.90;;;;;;5027029;28;20505;-70
2021/04/29 01:50:57;;;;;;;4.47;3.40;;;14.90;99.90;;;;;;5030735;28;20541;-72
2021/04/29 01:53:25;;;;;;;4.77;3.03;;;14.90;99.90;;;;;;5025938;28;20431;-70
2021/04/29 01:55:51;;;;;;;3.97;3.30;;;15.00;99.90;;;;;;5034315;28;20941;-70
2021/04/29 01:58:18;;;;;;;3.90;3.07;;;15.00;99.90;;;;;;5030635;28;20467;-71
2021/04/29 02:00:45;;;;;;;4.70;3.30;;;15.00;99.90;;;;;;5033071;28;20430;-71
2021/04/29 02:03:13;;;;;;;2.87;2.67;;;15.00;99.90;;;;;;5055417;22;20513;-74
2021/04/29 02:05:40;;;;;;;4.00;2.87;;;15.10;99.90;;;;;;5057985;28;20430;-75
2021/04/29 02:08:07;;;;;;;4.60;3.10;;;15.00;99.90;;;;;;5059748;28;20921;-75
2021/04/29 02:10:34;;;;;;;4.60;3.10;;;14.90;99.90;;;;;;5045466;28;20444;-75
2021/04/29 02:13:02;;;;;;;3.63;2.87;;;14.90;99.90;;;;;;5057795;28;20466;-74
2021/04/29 02:15:31;;;;;;;2.57;2.37;;;14.80;99.90;;;;;;5038982;28;20427;-75
2021/04/29 02:18:03;;;;;;;3.27;3.00;;;14.80;99.90;;;;;;5039895;28;20495;-75
2021/04/29 02:20:32;;;;;;;7.10;3.27;;;14.90;99.90;;;;;;5038318;28;20792;-76
2021/04/29 02:23:00;;;;;;;3.50;2.40;;;14.90;99.90;;;;;;5038984;28;20468;-74
2021/04/29 02:25:28;;;;;;;3.10;2.80;;;14.90;99.90;;;;;;5034713;28;20460;-75
2021/04/29 02:27:56;;;;;;;3.60;2.90;;;14.80;99.90;;;;;;5041603;28;21050;-75
2021/04/29 02:30:23;;;;;;;3.97;2.90;;;14.80;99.90;;;;;;5037217;28;20548;-75
2021/04/29 02:32:50;;;;;;;4.37;3.53;;;14.80;99.90;;;;;;5039203;28;20525;-75
2021/04/29 02:35:17;;;;;;;8.00;2.63;;;14.60;99.90;;;;;;5039799;28;20898;-75
2021/04/29 02:37:47;;;;;;;4.13;2.87;;;14.50;99.90;;;;;;5036685;28;20467;-75
2021/04/29 02:40:15;;;;;;;4.93;2.60;;;14.70;99.90;;;;;;5038984;28;20558;-76
2021/04/29 02:42:42;;;;;;;3.20;2.40;;;14.60;99.90;;;;;;5038208;28;20534;-76
2021/04/29 02:45:12;;;;;;;2.93;2.73;;;14.70;99.90;;;;;;5038401;28;20484;-76
2021/04/29 02:47:39;;;;;;;2.77;2.53;;;14.70;99.90;;;;;;5036220;28;20439;-75
2021/04/29 02:50:10;;;;;;;2.40;2.20;;;14.70;99.90;;;;;;5033322;28;20522;-75
2021/04/29 02:52:38;;;;;;;4.37;3.07;;;14.70;99.90;;;;;;5037407;28;20478;-75
2021/04/29 02:55:07;;;;;;;5.30;3.07;;;14.50;99.90;;;;;;5037887;28;20978;-76
2021/04/29 02:57:34;;;;;;;3.97;2.40;;;14.50;99.90;;;;;;5037482;28;20456;-74
2021/04/29 03:00:01;;;;;;;2.80;2.43;;;14.70;99.90;;;;;;5040840;28;20458;-75
2021/04/29 03:02:27;;;;;;;8.20;2.80;;;14.60;99.90;;;;;;5032517;28;20843;-75
2021/04/29 03:04:54;;;;;;;2.60;2.40;;;14.60;99.90;;;;;;5038991;28;21004;-76
2021/04/29 03:07:20;;;;;;;3.43;3.13;;;14.60;99.90;;;;;;5039097;28;20538;-75
2021/04/29 03:09:47;;;;;;;4.10;3.30;;;14.70;99.90;;;;;;5044775;28;21013;-75
2021/04/29 03:12:14;;;;;;;5.57;3.63;;;14.70;99.90;;;;;;5042563;28;20519;-75
2021/04/29 03:14:41;;;;;;;4.20;3.27;;;14.70;99.90;;;;;;5039410;28;20499;-75
2021/04/29 03:17:08;;;;;;;6.70;3.23;;;14.60;99.90;;;;;;5018029;28;20803;-75
2021/04/29 03:19:35;;;;;;;6.30;2.73;;;14.70;99.90;;;;;;5038802;28;20450;-75
2021/04/29 03:22:02;;;;;;;4.30;2.90;;;14.70;99.90;;;;;;5019294;28;20950;-75
2021/04/29 03:24:28;;;;;;;3.60;2.70;;;14.60;99.90;;;;;;5013620;28;20499;-76
2021/04/29 03:26:55;;;;;;;4.63;3.40;;;14.50;99.90;;;;;;5032857;28;20468;-75
2021/04/29 03:29:22;;;;;;;7.63;3.73;;;14.50;99.90;;;;;;5033966;28;21149;-75
2021/04/29 03:31:49;;;;;;;10.70;3.63;;;14.60;99.90;;;;;;5019487;28;20534;-75
2021/04/29 03:34:16;;;;;;;6.30;3.57;;;14.60;99.90;;;;;;5020402;28;20952;-74
2021/04/29 03:36:42;;;;;;;5.90;3.90;;;14.70;99.90;;;;;;4998210;28;20547;-74
2021/04/29 03:39:09;;;;;;;3.87;3.57;;;14.70;99.90;;;;;;5014484;28;20480;-75
2021/04/29 03:41:36;;;;;;;4.80;3.97;;;14.60;99.90;;;;;;5017747;28;20919;-74
2021/04/29 03:44:03;;;;;;;5.37;3.47;;;14.60;99.90;;;;;;5025182;28;20471;-74
2021/04/29 03:46:30;;;;;;;4.00;3.70;;;14.60;99.90;;;;;;5033695;28;20495;-75
2021/04/29 03:48:57;;;;;;;7.57;3.97;;;14.70;99.90;;;;;;5034730;28;20478;-74
2021/04/29 03:51:24;;;;;;;8.40;5.00;;;14.70;99.90;;;;;;5023487;28;20538;-75
2021/04/29 03:53:50;;;;;;;5.10;4.07;;;14.60;99.90;;;;;;5013812;28;20506;-73
2021/04/29 03:56:17;;;;;;;13.13;4.63;;;14.60;99.90;;;;;;5015915;28;20582;-74
2021/04/29 03:58:44;;;;;;;8.20;4.40;;;14.40;99.90;;;;;;5018538;28;20526;-74
2021/04/29 04:01:10;;;;;;;8.10;5.47;;;14.30;99.90;;;;;;5036740;28;20587;-74
2021/04/29 04:03:38;;;;;;;8.03;5.90;;;14.30;99.90;;;;;;5034216;28;20520;-76
2021/04/29 04:06:05;;;;;;;6.37;5.67;;;14.30;99.90;;;;;;5017898;28;20537;-74
2021/04/29 04:08:32;;;;;;;7.53;5.00;;;14.20;99.90;;;;;;5035181;28;20562;-75
2021/04/29 04:10:59;;;;;;;10.27;5.60;;;14.30;99.90;;;;;;5038531;28;20490;-74
2021/04/29 04:13:25;;;;;;;5.97;4.67;;;14.40;99.90;;;;;;5026803;28;20846;-75
2021/04/29 04:15:52;;;;;;;7.67;4.27;;;14.30;99.90;;;;;;5041937;28;20948;-74
2021/04/29 04:18:19;;;;;;;7.87;4.63;;;14.30;99.90;;;;;;5034582;28;20525;-74
2021/04/29 04:20:46;;;;;;;14.03;5.37;;;14.40;99.90;;;;;;5020393;28;20470;-74
2021/04/29 04:23:13;;;;;;;6.10;5.13;;;14.20;99.90;;;;;;5043457;28;20502;-73
2021/04/29 04:25:40;;;;;;;9.33;6.87;;;14.20;99.90;;;;;;5028331;28;20475;-74
2021/04/29 04:28:06;;;;;;;5.80;4.47;;;14.10;99.90;;;;;;5037361;28;20496;-75
2021/04/29 04:30:33;;;;;;;4.50;2.73;;;14.10;99.90;;;;;;5015668;28;20461;-75
2021/04/29 04:32:59;;;;;;;7.67;4.67;;;14.10;99.90;;;;;;5023109;28;20483;-74
2021/04/29 04:35:26;;;;;;;7.53;5.03;;;13.90;99.90;;;;;;5035467;28;20599;-75
2021/04/29 04:37:53;;;;;;;6.30;4.00;;;13.90;99.90;;;;;;5029454;28;20546;-74
2021/04/29 04:40:20;;;;;;;8.60;4.40;;;13.80;99.90;;;;;;5014813;28;20456;-75
2021/04/29 04:42:46;;;;;;;11.60;6.50;;;13.70;99.90;;;;;;5033149;28;20551;-76
2021/04/29 04:45:13;;;;;;;5.97;4.57;;;13.70;99.90;;;;;;5033700;28;20575;-75
2021/04/29 04:47:40;;;;;;;5.80;3.87;;;13.80;99.90;;;;;;5039629;28;20605;-74
2021/04/29 04:50:08;;;;;;;10.53;4.97;;;13.70;99.90;;;;;;5046838;28;20515;-74
2021/04/29 04:52:35;;;;;;;8.93;4.60;;;13.70;99.90;;;;;;5043454;28;20487;-73
2021/04/29 04:55:02;;;;;;;6.13;4.70;;;13.70;99.90;;;;;;5004834;28;20484;-73
2021/04/29 04:57:29;;;;;;;8.23;6.50;;;13.60;99.90;;;;;;5046767;28;20528;-74
2021/04/29 04:59:56;;;;;;;6.57;5.00;;;13.60;99.90;;;;;;5023207;28;20439;-74
2021/04/29 05:02:23;;;;;;;7.77;5.00;;;13.60;99.90;;;;;;5027301;28;20847;-74
2021/04/29 05:04:49;;;;;;;8.57;5.60;;;13.70;99.90;;;;;;5027021;28;20463;-75
2021/04/29 05:07:16;;;;;;;14.57;3.67;;;13.60;99.90;;;;;;5028306;28;20541;-73
2021/04/29 05:09:43;;;;;;;7.20;5.73;;;13.40;99.90;;;;;;5028509;28;20475;-74
2021/04/29 05:12:11;;;;;;;6.73;5.50;;;13.30;99.90;;;;;;5024882;28;20460;-74
2021/04/29 05:14:38;;;;;;;5.17;3.43;;;13.20;99.90;;;;;;5044352;28;20484;-74
2021/04/29 05:17:05;;;;;;;9.50;4.77;;;13.20;99.90;;;;;;5041571;28;20528;-75
2021/04/29 05:19:32;;;;;;;8.03;5.33;;;13.40;99.90;;;;;;5047136;28;20458;-75
2021/04/29 05:21:58;;;;;;;8.07;6.20;;;13.40;99.90;;;;;;5044343;28;20551;-74
2021/04/29 05:24:25;;;;;;;7.73;3.77;;;13.40;99.90;;;;;;5009495;28;20483;-76
2021/04/29 05:26:52;;;;;;;13.67;5.70;;;13.30;99.90;;;;;;5044060;28;20435;-74
2021/04/29 05:29:19;;;;;;;11.03;6.67;;;13.20;99.90;;;;;;5029028;28;20466;-74
2021/04/29 05:31:46;;;;;;;14.70;7.00;;;13.20;99.90;;;;;;5024998;28;20492;-74
2021/04/29 05:34:12;;;;;;;8.93;3.37;;;13.10;99.90;;;;;;5029732;28;20518;-73
2021/04/29 05:36:39;;;;;;;6.00;4.20;;;13.10;99.90;;;;;;5031460;28;20970;-75
2021/04/29 05:39:06;;;;;;;9.20;6.23;;;13.00;99.90;;;;;;5027598;28;20474;-75
2021/04/29 05:41:32;;;;;;;8.73;7.13;;;12.90;99.90;;;;;;5048945;28;20796;-75
2021/04/29 05:43:59;;;;;;;10.80;6.47;;;13.00;99.90;;;;;;5032113;28;20578;-74
2021/04/29 05:46:27;;;;;;;11.33;6.90;;;13.00;99.90;;;;;;5047902;28;20936;-74
2021/04/29 05:48:53;;;;;;;10.23;7.27;;;12.90;99.90;;;;;;5046735;28;20618;-74
2021/04/29 05:51:20;;;;;;;7.80;4.90;;;13.00;99.90;;;;;;5027861;28;20495;-74
2021/04/29 05:53:46;;;;;;;10.63;6.53;;;13.10;99.90;;;;;;5046373;28;21032;-74
2021/04/29 05:56:15;;;;;;;5.30;3.80;;;13.20;99.90;;;;;;5039991;28;20495;-74
2021/04/29 05:58:42;;;;;;;9.67;6.30;;;13.30;99.90;;;;;;5041483;28;20460;-74
2021/04/29 06:01:10;;;;;;;31.23;6.83;;;13.20;99.90;;;;;;5050096;28;20474;-74
2021/04/29 06:03:38;;;;;;;9.93;6.73;;;13.20;99.90;;;;;;5049583;28;20486;-76
2021/04/29 06:06:05;;;;;;;8.97;6.47;;;13.10;99.90;;;;;;5049010;28;20442;-74
2021/04/29 06:08:32;;;;;;;5.53;4.10;;;12.90;99.90;;;;;;5046243;28;20549;-75
2021/04/29 06:10:59;;;;;;;11.13;7.90;;;12.70;99.90;;;;;;5045282;28;20441;-75
2021/04/29 06:13:26;;;;;;;12.00;7.07;;;12.80;99.90;;;;;;5048222;28;20923;-76
2021/04/29 06:15:52;;;;;;;15.50;7.57;;;13.10;99.90;;;;;;5048833;28;20438;-76
2021/04/29 06:18:19;;;;;;;10.30;7.60;;;13.60;99.90;;;;;;5049167;28;20993;-75
2021/04/29 06:20:46;;;;;;;9.00;5.93;;;13.80;99.90;;;;;;5029707;28;20529;-74
2021/04/29 06:23:13;;;;;;;8.13;6.53;;;14.20;99.90;;;;;;5048713;28;20856;-75
2021/04/29 06:25:41;;;;;;;12.20;6.73;;;14.60;99.90;;;;;;5041706;28;20490;-75
2021/04/29 06:28:07;;;;;;;11.60;7.57;;;14.70;99.90;;;;;;5062248;28;20490;-75
2021/04/29 06:30:34;;;;;;;15.70;8.40;;;14.80;99.90;;;;;;5060088;28;20503;-74
2021/04/29 06:33:01;;;;;;;13.00;8.20;;;15.10;99.90;;;;;;5054462;28;20543;-74
2021/04/29 06:35:27;;;;;;;11.77;7.40;;;15.40;99.90;;;;;;5049331;28;21292;-75
2021/04/29 06:37:55;;;;;;;13.73;10.30;;;15.90;99.90;;;;;;5050724;28;20871;-75
2021/04/29 06:40:21;;;;;;;13.87;8.53;;;16.20;99.90;;;;;;5049772;28;20463;-75
2021/04/29 06:42:48;;;;;;;10.73;8.23;;;16.20;99.90;;;;;;5027250;28;21075;-75
2021/04/29 06:45:15;;;;;;;15.57;9.57;;;15.90;99.90;;;;;;5047593;28;21002;-76
2021/04/29 06:47:41;;;;;;;10.17;8.80;;;15.80;99.90;;;;;;5043268;28;20580;-75
2021/04/29 06:50:09;;;;;;;14.47;6.90;;;15.90;99.90;;;;;;5028799;28;21004;-77
2021/04/29 06:52:36;;;;;;;11.47;8.37;;;16.00;99.90;;;;;;5050289;28;20463;-75
2021/04/29 06:55:04;;;;;;;16.83;10.93;;;16.10;99.90;;;;;;5033772;28;20494;-75
2021/04/29 06:57:31;;;;;;;11.57;9.47;;;16.60;99.90;;;;;;5044969;28;20459;-77
2021/04/29 06:59:58;;;;;;;18.33;9.30;;;16.40;99.90;;;;;;5047399;28;20522;-75
2021/04/29 07:02:25;;;;;;;14.27;8.73;;;16.50;99.90;;;;;;5030375;28;20470;-75
2021/04/29 07:04:51;;;;;;;13.37;8.20;;;16.80;99.90;;;;;;5008574;28;20500;-76
2021/04/29 07:07:18;;;;;;;10.27;7.30;;;17.00;99.90;;;;;;5031520;28;20464;-74
2021/04/29 07:09:45;;;;;;;10.50;8.07;;;17.10;99.90;;;;;;5047556;28;20480;-75
2021/04/29 07:12:12;;;;;;;18.60;10.63;;;17.40;99.90;;;;;;5032892;28;20547;-75
2021/04/29 07:14:39;;;;;;;27.53;11.73;;;17.90;99.90;;;;;;5048889;28;20827;-76
2021/04/29 07:17:06;;;;;;;12.73;7.67;;;17.70;97.50;;;;;;5027517;28;20492;-76
2021/04/29 07:19:32;;;;;;;17.53;10.57;;;17.70;96.60;;;;;;5031171;28;20546;-75
2021/04/29 07:21:59;;;;;;;16.40;8.87;;;17.70;95.80;;;;;;5028750;28;20459;-75
2021/04/29 07:24:26;;;;;;;12.13;7.47;;;17.30;95.70;;;;;;5030726;28;20914;-76
2021/04/29 07:26:53;;;;;;;15.57;9.03;;;17.00;96.20;;;;;;5047782;28;20490;-75
2021/04/29 07:29:20;;;;;;;20.73;13.27;;;17.20;96.40;;;;;;5047868;28;20533;-74
2021/04/29 07:31:47;;;;;;;17.53;10.60;;;17.50;95.80;;;;;;5049504;28;20491;-75
2021/04/29 07:34:13;;;;;;;12.40;7.93;;;17.60;94.70;;;;;;5045187;28;20979;-74
2021/04/29 07:36:40;;;;;;;13.10;6.00;;;17.80;94.40;;;;;;5046749;28;20543;-76
2021/04/29 07:39:07;;;;;;;11.93;8.10;;;18.10;93.20;;;;;;5030390;28;20499;-75
2021/04/29 07:41:33;;;;;;;21.27;11.67;;;17.80;93.10;;;;;;5045616;28;20499;-75
2021/04/29 07:44:01;;;;;;;14.93;10.33;;;17.60;93.90;;;;;;5049467;28;20487;-77
2021/04/29 07:46:29;;;;;;;13.83;7.07;;;18.00;93.10;;;;;;5029683;28;20451;-75
2021/04/29 07:48:55;;;;;;;16.83;9.03;;;18.10;92.90;;;;;;5045783;28;20484;-75
2021/04/29 07:51:22;;;;;;;15.93;10.60;;;18.80;91.70;;;;;;5046911;28;20508;-76
2021/04/29 07:53:49;;;;;;;11.00;7.33;;;18.50;90.50;;;;;;5043609;28;20480;-75
2021/04/29 07:56:15;;;;;;;13.30;9.07;;;18.30;90.00;;;;;;5045514;28;20592;-74
2021/04/29 07:58:42;;;;;;;21.83;11.50;;;18.20;89.90;;;;;;5044646;28;22272;-75
2021/04/29 08:01:09;;;;;;;19.63;9.47;;;18.40;89.90;;;;;;5046421;28;20971;-76
2021/04/29 08:03:36;;;;;;;10.10;7.20;;;18.60;88.50;;;;;;5043462;28;20523;-75
2021/04/29 08:06:03;;;;;;;15.50;9.97;;;18.50;88.30;;;;;;5045514;28;20519;-74
2021/04/29 08:08:30;;;;;;;7.87;5.30;;;18.70;88.60;;;;;;5043065;28;20490;-74
2021/04/29 08:10:56;;;;;;;12.40;9.13;;;19.10;86.40;;;;;;5049377;28;20468;-77
2021/04/29 08:13:23;;;;;;;10.83;7.80;;;19.30;86.80;;;;;;5031779;28;20509;-75
2021/04/29 08:15:50;;;;;;;13.57;9.83;;;19.00;85.50;;;;;;5013994;28;20943;-75
2021/04/29 08:18:17;;;;;;;11.50;5.93;;;19.10;85.40;;;;;;5048108;28;20487;-76
2021/04/29 08:20:44;;;;;;;12.87;9.73;;;19.00;83.30;;;;;;5046370;28;20887;-77
2021/04/29 08:23:11;;;;;;;19.00;12.20;;;18.60;83.90;;;;;;5048377;28;20498;-75
2021/04/29 08:25:37;;;;;;;9.27;8.17;;;18.50;84.00;;;;;;5024313;28;20496;-75
2021/04/29 08:28:04;;;;;;;14.40;10.47;;;18.50;83.80;;;;;;5032111;28;20456;-75
2021/04/29 08:30:31;;;;;;;15.50;10.40;;;18.30;85.10;;;;;;5030165;28;20529;-75
2021/04/29 08:33:00;;;;;;;13.63;8.53;;;18.40;86.60;;;;;;5027668;28;20596;-74
2021/04/29 08:35:28;;;;;;;18.30;10.30;;;18.70;84.30;;;;;;5048835;28;20843;-74
2021/04/29 08:37:56;;;;;;;12.40;8.67;;;18.70;84.70;;;;;;5042384;28;20467;-75
2021/04/29 08:40:24;;;;;;;19.33;10.50;;;19.20;84.10;;;;;;5046672;28;20491;-75
2021/04/29 08:42:51;;;;;;;12.90;9.50;;;19.20;83.40;;;;;;5045070;28;20490;-77
2021/04/29 08:45:18;;;;;;;19.50;11.77;;;19.00;83.00;;;;;;5039989;28;21031;-76
2021/04/29 08:47:49;;;;;;;19.87;13.20;;;18.20;85.50;;;;;;5036410;28;20939;-76
2021/04/29 08:50:16;;;;;;;14.73;9.83;;;18.10;86.80;;;;;;5038454;28;20507;-75
2021/04/29 08:52:43;;;;;;;18.70;12.87;;;17.50;89.00;;;;;;5039166;28;20915;-74
2021/04/29 08:55:15;;;;;;;22.33;13.80;;;17.60;90.30;;;;;;5037250;28;20562;-75
2021/04/29 08:57:43;;;;;;;22.57;14.23;;;17.80;90.30;;;;;;5038811;28;20487;-75
2021/04/29 09:00:11;;;;;;;19.07;13.20;;;17.30;91.00;;;;;;5044131;28;20468;-75
2021/04/29 09:02:38;;;;;;;27.27;15.30;;;16.40;93.10;;;;;;5046791;28;20884;-75
2021/04/29 09:05:14;;;;;;;18.77;13.20;;;15.90;94.80;;;;;;5048322;28;20876;-74
2021/04/29 09:07:51;;;;;;;24.63;14.50;;;15.70;95.70;;;;;;5045427;28;20821;-75
2021/04/29 09:10:27;;;;;;;13.73;9.53;;;16.10;96.50;;;;;;5044569;28;20523;-76
2021/04/29 09:12:54;;;;;;;30.87;18.10;;;16.10;96.70;;;;;;5050445;28;21133;-76
2021/04/29 09:15:26;;;;;;;34.37;19.10;;;16.70;96.00;;;;;;5051329;28;20519;-77
2021/04/29 09:18:08;;;;;;;25.40;16.27;;;16.90;95.70;;;;;;5047865;28;20485;-75
2021/04/29 09:20:35;;;;;;;28.60;18.10;;;17.30;94.90;;;;;;5050601;28;20548;-75
2021/04/29 09:23:05;;;;;;;12.70;8.80;;;17.80;93.80;;;;;;5049628;28;20932;-76
2021/04/29 09:25:33;;;;;;;25.27;15.33;;;17.10;92.30;;;;;;5045597;28;20430;-77
2021/04/29 09:28:00;;;;;;;18.10;13.03;;;17.20;94.10;;;;;;5048196;28;20451;-77
2021/04/29 09:30:28;;;;;;;28.60;17.47;;;17.70;92.00;;;;;;5050140;28;20529;-76
2021/04/29 09:32:59;;;;;;;18.97;11.67;;;16.70;93.70;;;;;;5053342;28;20463;-74
2021/04/29 09:35:27;;;;;;;17.23;10.50;;;16.20;94.80;;;;;;5048557;28;20514;-73
2021/04/29 09:37:58;;;;;;;16.97;10.33;;;16.70;93.80;;;;;;5048129;28;20467;-73
2021/04/29 09:40:28;;;;;;;21.60;12.77;;;17.60;93.40;;;;;;5042917;28;20513;-73
2021/04/29 09:42:57;;;;;;;23.43;18.20;;;18.30;91.90;;;;;;5044496;28;20895;-76
2021/04/29 09:45:27;;;;;;;16.10;11.00;;;18.40;90.40;;;;;;5045527;28;20463;-75
2021/04/29 09:47:56;;;;;;;27.70;15.63;;;17.80;91.00;;;;;;5047257;28;20459;-76
2021/04/29 09:50:25;;;;;;;19.87;10.80;;;16.80;92.80;;;;;;5044684;28;20920;-75
2021/04/29 09:53:03;;;;;;;17.40;9.93;;;16.00;92.80;;;;;;5050998;28;20467;-76
2021/04/29 09:55:31;;;;;;;13.80;8.77;;;16.10;93.80;;;;;;5048251;28;20490;-74
2021/04/29 09:58:03;;;;;;;19.40;12.23;;;17.20;91.20;;;;;;5050174;28;20459;-73
2021/04/29 10:00:30;;;;;;;17.10;11.43;;;18.40;90.10;;;;;;5050360;28;20456;-74
2021/04/29 10:02:57;;;;;;;7.00;5.40;;;19.00;86.40;;;;;;5030143;28;20491;-75
2021/04/29 10:05:24;;;;;;;21.53;12.20;;;18.30;85.80;;;;;;5047528;28;20506;-75
2021/04/29 10:07:51;;;;;;;22.97;14.20;;;17.70;89.00;;;;;;5040630;28;20460;-74
2021/04/29 10:10:22;;;;;;;17.90;10.57;;;17.70;88.10;;;;;;5051123;28;20511;-74
2021/04/29 10:12:50;;;;;;;18.27;13.40;;;17.80;89.40;;;;;;5049884;28;20981;-75
2021/04/29 10:15:19;;;;;;;19.10;9.20;;;17.80;89.10;;;;;;5053124;28;20483;-75
2021/04/29 10:17:47;;;;;;;16.30;11.70;;;17.50;87.10;;;;;;5050551;28;20810;-74
2021/04/29 10:20:15;;;;;;;13.13;11.60;;;16.80;83.80;;;;;;5030527;28;20491;-76
2021/04/29 10:22:43;;;;;;;15.87;9.53;;;16.60;86.20;;;;;;5046440;28;20455;-75
2021/04/29 10:25:11;;;;;;;17.00;10.00;;;16.40;86.40;;;;;;5045521;28;20999;-75
2021/04/29 10:27:44;;;;;;;12.60;7.37;;;16.50;86.90;;;;;;5048025;28;20973;-76
2021/04/29 10:30:12;;;;;;;18.33;8.13;;;16.70;87.60;;;;;;5044086;28;20482;-74
2021/04/29 10:32:40;;;;;;;19.10;10.30;;;16.70;86.50;;;;;;5047517;28;21028;-76
2021/04/29 10:35:16;;;;;;;9.40;7.60;;;16.50;87.00;;;;;;5040495;28;20477;-75
2021/04/29 10:37:55;;;;;;;12.53;9.57;;;16.90;84.60;;;;;;5043786;28;20963;-75
2021/04/29 10:40:35;;;;;;;19.60;10.27;;;17.50;85.30;;;;;;5047091;28;20583;-75
2021/04/29 10:43:01;;;;;;;12.37;10.10;;;18.80;84.20;;;;;;5046328;28;20952;-74
2021/04/29 10:45:30;;;;;;;14.80;10.10;;;19.70;82.20;;;;;;5047968;28;20470;-74
2021/04/29 10:48:07;;;;;;;19.93;12.20;;;20.50;77.10;;;;;;5048289;28;20544;-77
2021/04/29 10:50:45;;;;;;;17.60;12.40;;;19.20;77.70;;;;;;5051199;28;20601;-73
2021/04/29 10:53:13;;;;;;;17.60;10.93;;;18.60;80.80;;;;;;5045802;28;20529;-74
2021/04/29 10:55:43;;;;;;;27.60;11.70;;;18.50;80.00;;;;;;5047830;28;20991;-74
2021/04/29 10:58:22;;;;;;;17.00;11.13;;;18.30;80.30;;;;;;5040707;28;20456;-76
2021/04/29 11:01:00;;;;;;;19.87;10.97;;;17.70;79.50;;;;;;5044388;28;20498;-75
2021/04/29 11:03:33;;;;;;;16.30;9.37;;;17.50;81.70;;;;;;5043341;28;20581;-76
2021/04/29 11:06:12;;;;;;;14.20;9.00;;;17.50;82.20;;;;;;5048181;28;20499;-76
2021/04/29 11:08:41;;;;;;;22.50;13.90;;;17.30;82.40;;;;;;5046525;28;20565;-75
2021/04/29 11:11:28;;;;;;;23.03;11.40;;;17.20;83.80;;;;;;5043937;28;21016;-73
2021/04/29 11:14:05;;;;;;;19.87;13.00;;;17.80;84.20;;;;;;5044624;28;20486;-73
2021/04/29 11:16:48;;;;;;;19.67;8.73;;;17.00;84.50;;;;;;5045107;28;20490;-75
2021/04/29 11:19:38;;;;;;;21.10;9.00;;;16.60;85.40;;;;;;5043585;28;20459;-78
2021/04/29 11:22:07;;;;;;;21.70;11.33;;;16.20;87.10;;;;;;5045617;28;20506;-72
2021/04/29 11:24:35;;;;;;;15.20;7.17;;;15.80;88.40;;;;;;5050220;28;21013;-76
2021/04/29 11:27:02;;;;;;;7.23;4.60;;;16.10;88.50;;;;;;5048985;28;20472;-74
2021/04/29 11:29:39;;;;;;;18.83;12.00;;;16.20;87.40;;;;;;5049018;28;20970;-75
2021/04/29 11:32:06;;;;;;;17.30;7.97;;;16.10;86.70;;;;;;5054517;28;20457;-73
2021/04/29 11:34:43;;;;;;;11.37;8.47;;;16.20;86.40;;;;;;5054081;28;20565;-74
2021/04/29 11:37:09;;;;;;;18.00;10.10;;;17.60;84.40;;;;;;5051799;28;20455;-73
2021/04/29 11:39:37;;;;;;;8.63;5.93;;;18.60;79.70;;;;;;5042588;28;20827;-71
2021/04/29 11:42:06;;;;;;;20.43;7.90;;;17.90;76.70;;;;;;5045320;28;20809;-73
2021/04/29 11:44:32;;;;;;;6.07;4.33;;;18.50;75.40;;;;;;5048396;28;21042;-73
2021/04/29 11:47:13;;;;;;;10.53;7.77;;;18.70;73.50;;;;;;5047395;28;20534;-74
2021/04/29 11:49:44;;;;;;;6.50;5.90;;;18.70;74.10;;;;;;5049358;28;20516;-75
2021/04/29 11:52:10;;;;;;;14.53;7.90;;;19.40;71.30;;;;;;5047563;28;20939;-73
2021/04/29 11:54:48;;;;;;;12.70;9.20;;;19.80;70.40;;;;;;5048316;28;20907;-76
2021/04/29 11:57:15;;;;;;;18.53;7.90;;;19.40;72.90;;;;;;5041284;28;20522;-75
2021/04/29 11:59:42;;;;;;;10.10;6.60;;;18.50;75.00;;;;;;5047544;28;20533;-74
2021/04/29 12:02:13;;;;;;;5.87;4.33;;;18.20;75.50;;;;;;5044868;28;20499;-72
2021/04/29 12:04:44;;;;;;;5.93;4.97;;;17.90;73.80;;;;;;5048359;28;20479;-73
2021/04/29 12:07:11;;;;;;;7.07;6.37;;;17.40;73.00;;;;;;5026559;28;20460;-75
2021/04/29 12:09:37;;;;;;;10.17;5.63;;;16.90;73.00;;;;;;5031687;28;20508;-73
2021/04/29 12:12:13;;;;;;;8.77;4.63;;;16.60;75.10;;;;;;5029334;28;20968;-75
2021/04/29 12:14:40;;;;;;;8.20;5.63;;;16.40;76.60;;;;;;5040509;28;20576;-75
2021/04/29 12:17:07;;;;;;;12.43;5.77;;;16.00;80.80;;;;;;5045892;28;20509;-75
2021/04/29 12:19:34;;;;;;;8.77;5.00;;;15.50;90.30;;;;;;5047549;28;20792;-71
2021/04/29 12:22:02;;;;;;;13.20;7.60;;;14.50;99.90;;;;;;5050375;28;20464;-74
2021/04/29 12:24:40;;;;;;;10.03;5.47;;;13.60;99.90;;;;;;5051657;28;20798;-75
2021/04/29 12:27:15;;;;;;;6.33;2.63;;;13.20;99.90;;;;;;5046281;28;20487;-76
2021/04/29 12:29:41;;;;;;;12.90;7.30;;;13.00;99.90;;;;;;5055723;28;20540;-75
2021/04/29 12:32:08;;;;;;;10.67;6.77;;;13.20;99.90;;;;;;5047916;28;20529;-77
2021/04/29 12:34:42;;;;;;;10.77;6.43;;;13.70;99.90;;;;;;5050708;28;20831;-75
2021/04/29 12:37:10;;;;;;;9.93;7.67;;;15.00;99.90;;;;;;5041506;28;20872;-75
2021/04/29 12:39:40;;;;;;;10.80;7.47;;;15.30;99.90;;;;;;5046602;28;20503;-76
2021/04/29 12:42:09;;;;;;;9.90;3.70;;;15.90;99.90;;;;;;5051965;28;20970;-77
2021/04/29 12:44:38;;;;;;;6.83;4.07;;;15.90;99.90;;;;;;5048127;28;20544;-77